sensor_id;sensor_type;location;lat;lon;timestamp;pressure;altitude;pressure_sealevel;temperature;humidity
71559;BME280;59382;43.852;25.952;2022-09-03T00:00:21;101049.69;;;19.76;72.53
71559;BME280;59382;43.852;25.952;2022-09-03T00:02:59;101059.19;;;19.69;72.30
71559;BME280;59382;43.852;25.952;2022-09-03T00:14:35;101077.50;;;19.63;72.61
71559;BME280;59382;43.852;25.952;2022-09-03T00:17:02;101069.50;;;19.52;72.56
71559;BME280;59382;43.852;25.952;2022-09-03T00:19:32;101093.09;;;19.63;72.55
71559;BME280;59382;43.852;25.952;2022-09-03T00:22:04;101084.09;;;19.62;72.33
71559;BME280;59382;43.852;25.952;2022-09-03T00:24:35;101096.94;;;19.62;72.38
71559;BME280;59382;43.852;25.952;2022-09-03T00:27:09;101084.34;;;19.61;72.23
71559;BME280;59382;43.852;25.952;2022-09-03T00:29:45;101109.00;;;19.66;72.38
71559;BME280;59382;43.852;25.952;2022-09-03T00:32:17;101102.41;;;19.62;72.23
71559;BME280;59382;43.852;25.952;2022-09-03T00:34:49;101091.78;;;19.65;72.36
71559;BME280;59382;43.852;25.952;2022-09-03T00:37:16;101088.97;;;19.60;72.11
71559;BME280;59382;43.852;25.952;2022-09-03T00:39:42;101109.84;;;19.66;72.04
71559;BME280;59382;43.852;25.952;2022-09-03T00:42:33;101112.31;;;19.68;72.20
71559;BME280;59382;43.852;25.952;2022-09-03T00:45:59;101116.44;;;19.70;72.23
71559;BME280;59382;43.852;25.952;2022-09-03T00:48:35;101116.97;;;19.67;71.80
71559;BME280;59382;43.852;25.952;2022-09-03T00:53:47;101107.69;;;19.68;71.49
71559;BME280;59382;43.852;25.952;2022-09-03T01:01:53;101117.47;;;19.64;71.50
71559;BME280;59382;43.852;25.952;2022-09-03T01:07:27;101110.38;;;19.63;71.40
71559;BME280;59382;43.852;25.952;2022-09-03T01:10:13;101118.00;;;19.61;71.47
71559;BME280;59382;43.852;25.952;2022-09-03T01:34:58;101138.84;;;19.62;70.48
71559;BME280;59382;43.852;25.952;2022-09-03T01:37:40;101146.47;;;19.60;70.81
71559;BME280;59382;43.852;25.952;2022-09-03T01:45:42;101151.94;;;19.55;70.96
71559;BME280;59382;43.852;25.952;2022-09-03T01:48:31;101143.41;;;19.52;70.76
71559;BME280;59382;43.852;25.952;2022-09-03T02:02:16;101108.97;;;19.29;70.54
71559;BME280;59382;43.852;25.952;2022-09-03T02:05:00;101113.78;;;19.22;70.63
71559;BME280;59382;43.852;25.952;2022-09-03T02:07:32;101136.66;;;19.32;70.80
71559;BME280;59382;43.852;25.952;2022-09-03T02:09:59;101134.69;;;19.28;70.28
71559;BME280;59382;43.852;25.952;2022-09-03T02:12:28;101137.16;;;19.29;70.39
71559;BME280;59382;43.852;25.952;2022-09-03T02:15:04;101129.06;;;19.18;70.34
71559;BME280;59382;43.852;25.952;2022-09-03T02:17:31;101127.72;;;19.20;70.33
71559;BME280;59382;43.852;25.952;2022-09-03T02:19:58;101147.75;;;19.26;70.32
71559;BME280;59382;43.852;25.952;2022-09-03T02:22:28;101134.53;;;19.18;70.33
71559;BME280;59382;43.852;25.952;2022-09-03T02:24:53;101134.53;;;19.18;70.26
71559;BME280;59382;43.852;25.952;2022-09-03T02:27:19;101134.84;;;19.21;70.14
71559;BME280;59382;43.852;25.952;2022-09-03T02:29:45;101144.41;;;19.19;70.24
71559;BME280;59382;43.852;25.952;2022-09-03T02:32:11;101152.66;;;19.24;70.28
71559;BME280;59382;43.852;25.952;2022-09-03T02:34:40;101140.16;;;19.28;70.36
71559;BME280;59382;43.852;25.952;2022-09-03T02:37:14;101141.59;;;19.35;70.61
71559;BME280;59382;43.852;25.952;2022-09-03T02:39:40;101140.06;;;19.44;69.87
71559;BME280;59382;43.852;25.952;2022-09-03T02:42:08;101132.66;;;19.45;69.93
71559;BME280;59382;43.852;25.952;2022-09-03T02:44:39;101129.91;;;19.45;69.71
71559;BME280;59382;43.852;25.952;2022-09-03T02:47:07;101128.28;;;19.44;69.91
71559;BME280;59382;43.852;25.952;2022-09-03T02:49:32;101141.78;;;19.56;70.01
71559;BME280;59382;43.852;25.952;2022-09-03T02:52:01;101158.00;;;19.62;69.98
71559;BME280;59382;43.852;25.952;2022-09-03T02:54:30;101137.13;;;19.56;69.79
71559;BME280;59382;43.852;25.952;2022-09-03T02:56:58;101147.06;;;19.62;69.80
71559;BME280;59382;43.852;25.952;2022-09-03T02:59:24;101138.25;;;19.60;69.68
71559;BME280;59382;43.852;25.952;2022-09-03T03:01:53;101148.69;;;19.63;69.55
71559;BME280;59382;43.852;25.952;2022-09-03T03:04:18;101141.78;;;19.56;69.43
71559;BME280;59382;43.852;25.952;2022-09-03T03:06:44;101121.66;;;19.40;69.58
71559;BME280;59382;43.852;25.952;2022-09-03T03:09:10;101130.44;;;19.42;69.35
71559;BME280;59382;43.852;25.952;2022-09-03T03:11:35;101155.13;;;19.47;69.22
71559;BME280;59382;43.852;25.952;2022-09-03T03:14:02;101149.56;;;19.37;69.42
71559;BME280;59382;43.852;25.952;2022-09-03T03:16:29;101139.06;;;19.29;69.32
71559;BME280;59382;43.852;25.952;2022-09-03T03:18:56;101152.22;;;19.32;69.67
71559;BME280;59382;43.852;25.952;2022-09-03T03:21:21;101153.88;;;19.33;69.83
71559;BME280;59382;43.852;25.952;2022-09-03T03:23:47;101149.50;;;19.32;69.75
71559;BME280;59382;43.852;25.952;2022-09-03T03:26:16;101157.75;;;19.37;69.65
71559;BME280;59382;43.852;25.952;2022-09-03T03:28:43;101153.88;;;19.33;69.69
71559;BME280;59382;43.852;25.952;2022-09-03T03:31:18;101161.81;;;19.34;69.42
71559;BME280;59382;43.852;25.952;2022-09-03T03:33:53;101130.16;;;19.17;69.23
71559;BME280;59382;43.852;25.952;2022-09-03T03:36:19;101157.75;;;19.37;69.44
71559;BME280;59382;43.852;25.952;2022-09-03T03:38:45;101134.69;;;19.28;69.78
71559;BME280;59382;43.852;25.952;2022-09-03T03:41:16;101144.09;;;19.37;69.54
71559;BME280;59382;43.852;25.952;2022-09-03T03:43:43;101150.16;;;19.44;69.47
71559;BME280;59382;43.852;25.952;2022-09-03T03:46:09;101158.94;;;19.46;69.64
71559;BME280;59382;43.852;25.952;2022-09-03T03:48:35;101148.53;;;19.43;69.48
71559;BME280;59382;43.852;25.952;2022-09-03T03:51:04;101166.13;;;19.52;69.62
71559;BME280;59382;43.852;25.952;2022-09-03T03:53:32;101150.78;;;19.51;69.31
71559;BME280;59382;43.852;25.952;2022-09-03T03:56:16;101173.31;;;19.58;69.24
71559;BME280;59382;43.852;25.952;2022-09-03T03:58:45;101163.41;;;19.52;69.08
71559;BME280;59382;43.852;25.952;2022-09-03T04:01:17;101148.28;;;19.49;69.01
71559;BME280;59382;43.852;25.952;2022-09-03T04:03:56;101162.31;;;19.53;69.21
71559;BME280;59382;43.852;25.952;2022-09-03T04:06:38;101172.75;;;19.61;68.99
71559;BME280;59382;43.852;25.952;2022-09-03T04:09:06;101148.81;;;19.46;68.81
71559;BME280;59382;43.852;25.952;2022-09-03T04:11:32;101164.47;;;19.51;69.08
71559;BME280;59382;43.852;25.952;2022-09-03T04:13:57;101158.44;;;19.49;68.80
71559;BME280;59382;43.852;25.952;2022-09-03T04:16:25;101185.31;;;19.57;68.99
71559;BME280;59382;43.852;25.952;2022-09-03T04:18:52;101196.00;;;19.59;68.88
71559;BME280;59382;43.852;25.952;2022-09-03T04:21:20;101199.00;;;19.57;68.72
71559;BME280;59382;43.852;25.952;2022-09-03T04:23:48;101188.81;;;19.48;68.68
71559;BME280;59382;43.852;25.952;2022-09-03T04:26:19;101195.09;;;19.48;68.69
71559;BME280;59382;43.852;25.952;2022-09-03T04:28:45;101200.56;;;19.48;68.85
71559;BME280;59382;43.852;25.952;2022-09-03T04:31:13;101216.47;;;19.51;68.57
71559;BME280;59382;43.852;25.952;2022-09-03T04:33:39;101183.78;;;19.39;68.57
71559;BME280;59382;43.852;25.952;2022-09-03T04:36:19;101191.78;;;19.46;68.63
71559;BME280;59382;43.852;25.952;2022-09-03T04:38:46;101188.47;;;19.44;68.29
71559;BME280;59382;43.852;25.952;2022-09-03T04:41:14;101192.94;;;19.50;68.24
71559;BME280;59382;43.852;25.952;2022-09-03T04:43:40;101191.28;;;19.49;68.09
71559;BME280;59382;43.852;25.952;2022-09-03T04:46:09;101204.47;;;19.57;67.86
71559;BME280;59382;43.852;25.952;2022-09-03T04:48:35;101195.41;;;19.52;67.94
71559;BME280;59382;43.852;25.952;2022-09-03T04:51:10;101195.34;;;19.46;68.08
71559;BME280;59382;43.852;25.952;2022-09-03T04:53:40;101203.88;;;19.50;68.42
71559;BME280;59382;43.852;25.952;2022-09-03T04:56:23;101210.19;;;19.51;67.94
71559;BME280;59382;43.852;25.952;2022-09-03T04:58:57;101206.09;;;19.53;67.86
71559;BME280;59382;43.852;25.952;2022-09-03T05:01:26;101204.72;;;19.51;67.63
71559;BME280;59382;43.852;25.952;2022-09-03T05:03:52;101223.38;;;19.59;67.98
71559;BME280;59382;43.852;25.952;2022-09-03T05:06:18;101223.66;;;19.57;67.93
71559;BME280;59382;43.852;25.952;2022-09-03T05:08:48;101217.91;;;19.59;67.91
71559;BME280;59382;43.852;25.952;2022-09-03T05:11:14;101221.59;;;19.69;67.92
71559;BME280;59382;43.852;25.952;2022-09-03T05:13:40;101227.41;;;19.78;67.42
71559;BME280;59382;43.852;25.952;2022-09-03T05:16:09;101228.75;;;19.75;67.60
71559;BME280;59382;43.852;25.952;2022-09-03T05:18:35;101217.72;;;19.65;67.46
71559;BME280;59382;43.852;25.952;2022-09-03T05:21:05;101239.72;;;19.75;67.25
71559;BME280;59382;43.852;25.952;2022-09-03T05:23:31;101242.97;;;19.72;67.06
71559;BME280;59382;43.852;25.952;2022-09-03T05:26:02;101245.13;;;19.70;66.96
71559;BME280;59382;43.852;25.952;2022-09-03T05:28:29;101236.88;;;19.65;67.17
71559;BME280;59382;43.852;25.952;2022-09-03T05:31:08;101236.13;;;19.70;67.05
71559;BME280;59382;43.852;25.952;2022-09-03T05:33:38;101241.25;;;19.66;66.81
71559;BME280;59382;43.852;25.952;2022-09-03T05:36:06;101241.53;;;19.65;66.60
71559;BME280;59382;43.852;25.952;2022-09-03T05:38:33;101245.03;;;19.60;66.65
71559;BME280;59382;43.852;25.952;2022-09-03T05:41:04;101253.75;;;19.57;66.52
71559;BME280;59382;43.852;25.952;2022-09-03T05:43:31;101237.22;;;19.47;66.79
71559;BME280;59382;43.852;25.952;2022-09-03T05:46:01;101211.84;;;19.30;66.79
71559;BME280;59382;43.852;25.952;2022-09-03T05:48:31;101231.66;;;19.37;66.94
71559;BME280;59382;43.852;25.952;2022-09-03T05:51:02;101245.38;;;19.42;67.28
71559;BME280;59382;43.852;25.952;2022-09-03T05:53:31;101238.44;;;19.34;67.01
71559;BME280;59382;43.852;25.952;2022-09-03T05:55:59;101246.97;;;19.38;67.03
71559;BME280;59382;43.852;25.952;2022-09-03T05:58:36;101247.41;;;19.30;66.96
71559;BME280;59382;43.852;25.952;2022-09-03T06:03:43;101271.00;;;19.31;67.68
71559;BME280;59382;43.852;25.952;2022-09-03T06:06:10;101260.44;;;19.23;67.34
71559;BME280;59382;43.852;25.952;2022-09-03T06:08:39;101262.34;;;19.22;67.44
71559;BME280;59382;43.852;25.952;2022-09-03T06:11:06;101258.16;;;19.15;67.72
71559;BME280;59382;43.852;25.952;2022-09-03T06:13:35;101264.19;;;19.17;67.49
71559;BME280;59382;43.852;25.952;2022-09-03T06:16:05;101282.75;;;19.31;67.66
71559;BME280;59382;43.852;25.952;2022-09-03T06:18:31;101270.66;;;19.27;67.66
71559;BME280;59382;43.852;25.952;2022-09-03T06:21:02;101278.72;;;19.39;67.74
71559;BME280;59382;43.852;25.952;2022-09-03T06:23:32;101273.22;;;19.34;67.55
71559;BME280;59382;43.852;25.952;2022-09-03T06:26:00;101283.19;;;19.45;67.53
71559;BME280;59382;43.852;25.952;2022-09-03T06:28:26;101267.50;;;19.35;67.54
71559;BME280;59382;43.852;25.952;2022-09-03T06:30:53;101278.03;;;19.48;67.53
71559;BME280;59382;43.852;25.952;2022-09-03T06:33:24;101286.94;;;19.61;67.50
71559;BME280;59382;43.852;25.952;2022-09-03T06:36:00;101269.06;;;19.53;67.13
71559;BME280;59382;43.852;25.952;2022-09-03T06:38:31;101279.28;;;19.63;66.97
71559;BME280;59382;43.852;25.952;2022-09-03T06:41:01;101284.72;;;19.58;66.84
71559;BME280;59382;43.852;25.952;2022-09-03T06:43:29;101284.97;;;19.56;67.10
71559;BME280;59382;43.852;25.952;2022-09-03T06:46:02;101294.38;;;19.65;66.63
71559;BME280;59382;43.852;25.952;2022-09-03T06:48:29;101309.19;;;19.69;66.72
71559;BME280;59382;43.852;25.952;2022-09-03T06:50:57;101277.34;;;19.58;66.69
71559;BME280;59382;43.852;25.952;2022-09-03T06:53:25;101292.19;;;19.67;66.72
71559;BME280;59382;43.852;25.952;2022-09-03T06:55:58;101302.09;;;19.68;66.62
71559;BME280;59382;43.852;25.952;2022-09-03T06:58:29;101288.81;;;19.55;66.56
71559;BME280;59382;43.852;25.952;2022-09-03T07:01:18;101305.84;;;19.62;66.52
71559;BME280;59382;43.852;25.952;2022-09-03T07:03:45;101305.84;;;19.62;66.62
71559;BME280;59382;43.852;25.952;2022-09-03T07:06:16;101300.03;;;19.59;66.66
71559;BME280;59382;43.852;25.952;2022-09-03T07:08:42;101303.03;;;19.57;66.37
71559;BME280;59382;43.852;25.952;2022-09-03T07:11:11;101318.44;;;19.63;66.62
71559;BME280;59382;43.852;25.952;2022-09-03T07:13:39;101300.25;;;19.52;66.89
71559;BME280;59382;43.852;25.952;2022-09-03T07:16:11;101324.53;;;19.70;66.77
71559;BME280;59382;43.852;25.952;2022-09-03T07:18:38;101324.25;;;19.67;66.64
71559;BME280;59382;43.852;25.952;2022-09-03T07:21:10;101336.06;;;19.72;66.47
71559;BME280;59382;43.852;25.952;2022-09-03T07:23:36;101326.50;;;19.75;66.82
71559;BME280;59382;43.852;25.952;2022-09-03T07:26:04;101297.56;;;19.57;66.79
71559;BME280;59382;43.852;25.952;2022-09-03T07:28:31;101327.41;;;19.80;67.07
71559;BME280;59382;43.852;25.952;2022-09-03T07:31:06;101318.03;;;19.76;67.01
71559;BME280;59382;43.852;25.952;2022-09-03T07:33:33;101331.28;;;19.84;67.14
71559;BME280;59382;43.852;25.952;2022-09-03T07:36:03;101331.78;;;19.81;67.22
71559;BME280;59382;43.852;25.952;2022-09-03T07:38:31;101327.34;;;19.75;67.18
71559;BME280;59382;43.852;25.952;2022-09-03T07:40:58;101337.34;;;19.86;67.03
71559;BME280;59382;43.852;25.952;2022-09-03T07:43:28;101324.69;;;19.80;67.36
71559;BME280;59382;43.852;25.952;2022-09-03T07:45:56;101281.72;;;19.59;67.26
71559;BME280;59382;43.852;25.952;2022-09-03T07:48:24;101326.38;;;19.86;67.34
71559;BME280;59382;43.852;25.952;2022-09-03T07:50:50;101325.91;;;19.94;67.32
71559;BME280;59382;43.852;25.952;2022-09-03T07:53:16;101341.56;;;19.99;67.36
71559;BME280;59382;43.852;25.952;2022-09-03T07:55:42;101313.50;;;19.87;67.26
71559;BME280;59382;43.852;25.952;2022-09-03T07:58:11;101338.63;;;20.05;67.49
71559;BME280;59382;43.852;25.952;2022-09-03T08:00:43;101329.75;;;19.93;67.34
71559;BME280;59382;43.852;25.952;2022-09-03T08:03:09;101337.38;;;19.91;67.69
71559;BME280;59382;43.852;25.952;2022-09-03T08:05:35;101318.88;;;19.77;67.66
71559;BME280;59382;43.852;25.952;2022-09-03T08:08:03;101343.38;;;19.88;67.56
71559;BME280;59382;43.852;25.952;2022-09-03T08:10:29;101334.59;;;19.86;67.80
71559;BME280;59382;43.852;25.952;2022-09-03T08:12:58;101333.34;;;19.99;67.58
71559;BME280;59382;43.852;25.952;2022-09-03T08:15:24;101335.63;;;20.07;67.11
71559;BME280;59382;43.852;25.952;2022-09-03T08:17:50;101334.81;;;20.06;66.51
71559;BME280;59382;43.852;25.952;2022-09-03T08:20:16;101332.56;;;20.03;66.58
71559;BME280;59382;43.852;25.952;2022-09-03T08:22:42;101328.97;;;19.98;66.76
71559;BME280;59382;43.852;25.952;2022-09-03T08:25:08;101327.56;;;19.95;66.61
71559;BME280;59382;43.852;25.952;2022-09-03T08:27:34;101338.81;;;19.99;66.60
71559;BME280;59382;43.852;25.952;2022-09-03T08:30:00;101319.81;;;19.87;66.63
71559;BME280;59382;43.852;25.952;2022-09-03T08:32:25;101336.84;;;19.94;66.89
71559;BME280;59382;43.852;25.952;2022-09-03T08:34:51;101325.81;;;19.84;66.85
71559;BME280;59382;43.852;25.952;2022-09-03T08:37:20;101346.19;;;19.93;66.80
71559;BME280;59382;43.852;25.952;2022-09-03T08:39:47;101318.34;;;19.80;66.77
71559;BME280;59382;43.852;25.952;2022-09-03T08:42:32;101347.31;;;19.97;66.68
71559;BME280;59382;43.852;25.952;2022-09-03T08:45:05;101337.88;;;19.88;66.67
71559;BME280;59382;43.852;25.952;2022-09-03T08:50:10;101339.66;;;19.99;66.88
71559;BME280;59382;43.852;25.952;2022-09-03T08:52:47;101346.59;;;20.07;66.43
71559;BME280;59382;43.852;25.952;2022-09-03T08:55:28;101342.75;;;20.08;66.72
71559;BME280;59382;43.852;25.952;2022-09-03T09:00:24;101354.56;;;20.08;66.81
71559;BME280;59382;43.852;25.952;2022-09-03T09:05:50;101352.38;;;20.10;66.21
71559;BME280;59382;43.852;25.952;2022-09-03T09:26:16;101371.09;;;19.92;66.10
71559;BME280;59382;43.852;25.952;2022-09-03T09:29:07;101373.13;;;20.01;66.20
71559;BME280;59382;43.852;25.952;2022-09-03T09:31:39;101373.16;;;20.06;66.05
71559;BME280;59382;43.852;25.952;2022-09-03T09:34:10;101375.34;;;20.04;65.99
71559;BME280;59382;43.852;25.952;2022-09-03T09:36:53;101361.41;;;19.84;66.07
71559;BME280;59382;43.852;25.952;2022-09-03T09:39:20;101375.44;;;19.88;66.24
71559;BME280;59382;43.852;25.952;2022-09-03T09:42:06;101375.09;;;19.84;66.65
71559;BME280;59382;43.852;25.952;2022-09-03T09:44:37;101388.34;;;19.92;66.14
71559;BME280;59382;43.852;25.952;2022-09-03T09:52:12;101380.44;;;19.96;66.39
71559;BME280;59382;43.852;25.952;2022-09-03T09:54:40;101378.53;;;19.96;66.27
71559;BME280;59382;43.852;25.952;2022-09-03T09:57:13;101370.56;;;19.95;66.22
71559;BME280;59382;43.852;25.952;2022-09-03T09:59:48;101381.97;;;20.08;66.13
71559;BME280;59382;43.852;25.952;2022-09-03T10:02:26;101392.47;;;20.16;66.00
71559;BME280;59382;43.852;25.952;2022-09-03T10:04:55;101384.75;;;20.13;65.90
71559;BME280;59382;43.852;25.952;2022-09-03T10:07:30;101387.00;;;20.16;65.80
71559;BME280;59382;43.852;25.952;2022-09-03T10:18:27;101409.50;;;20.18;65.29
71559;BME280;59382;43.852;25.952;2022-09-03T10:21:00;101397.31;;;20.09;64.91
71559;BME280;59382;43.852;25.952;2022-09-03T10:23:34;101407.53;;;20.14;64.78
71559;BME280;59382;43.852;25.952;2022-09-03T10:26:16;101412.75;;;20.15;65.03
71559;BME280;59382;43.852;25.952;2022-09-03T10:28:46;101418.84;;;20.22;65.33
71559;BME280;59382;43.852;25.952;2022-09-03T10:37:42;101420.31;;;20.08;64.87
71559;BME280;59382;43.852;25.952;2022-09-03T10:43:21;101448.00;;;20.12;64.70
71559;BME280;59382;43.852;25.952;2022-09-03T10:46:14;101438.41;;;20.09;64.78
71559;BME280;59382;43.852;25.952;2022-09-03T10:54:35;101436.75;;;20.08;64.84
71559;BME280;59382;43.852;25.952;2022-09-03T11:00:05;101427.44;;;20.09;64.63
71559;BME280;59382;43.852;25.952;2022-09-03T11:03:06;101436.38;;;20.21;64.72
71559;BME280;59382;43.852;25.952;2022-09-03T11:05:59;101444.66;;;20.26;64.76
71559;BME280;59382;43.852;25.952;2022-09-03T11:08:47;101443.13;;;20.14;65.46
71559;BME280;59382;43.852;25.952;2022-09-03T11:11:20;101437.81;;;20.07;65.91
71559;BME280;59382;43.852;25.952;2022-09-03T11:13:51;101429.50;;;19.97;65.76
71559;BME280;59382;43.852;25.952;2022-09-03T11:16:29;101450.47;;;20.08;66.06
71559;BME280;59382;43.852;25.952;2022-09-03T11:19:04;101465.31;;;20.12;66.11
71559;BME280;59382;43.852;25.952;2022-09-03T11:21:32;101459.66;;;20.19;65.53
71559;BME280;59382;43.852;25.952;2022-09-03T11:24:12;101455.50;;;20.16;65.52
71559;BME280;59382;43.852;25.952;2022-09-03T11:26:54;101450.59;;;20.18;65.50
71559;BME280;59382;43.852;25.952;2022-09-03T11:29:33;101452.81;;;20.21;65.46
71559;BME280;59382;43.852;25.952;2022-09-03T11:32:21;101454.47;;;20.22;65.34
71559;BME280;59382;43.852;25.952;2022-09-03T11:34:50;101430.13;;;20.04;65.09
71559;BME280;59382;43.852;25.952;2022-09-03T11:40:12;101450.34;;;20.20;65.18
71559;BME280;59382;43.852;25.952;2022-09-03T11:42:42;101468.31;;;20.32;64.71
71559;BME280;59382;43.852;25.952;2022-09-03T11:45:36;101472.06;;;20.26;64.72
71559;BME280;59382;43.852;25.952;2022-09-03T11:51:00;101458.38;;;20.26;64.52
71559;BME280;59382;43.852;25.952;2022-09-03T11:53:33;101476.22;;;20.29;64.49
71559;BME280;59382;43.852;25.952;2022-09-03T11:58:35;101469.38;;;20.31;64.46
71559;BME280;59382;43.852;25.952;2022-09-03T12:01:10;101442.06;;;20.15;64.19
71559;BME280;59382;43.852;25.952;2022-09-03T12:06:19;101482.63;;;20.39;64.45
71559;BME280;59382;43.852;25.952;2022-09-03T12:09:16;101483.75;;;20.43;64.66
71559;BME280;59382;43.852;25.952;2022-09-03T12:14:51;101463.38;;;20.34;63.88
71559;BME280;59382;43.852;25.952;2022-09-03T12:17:47;101478.78;;;20.40;63.88
71559;BME280;59382;43.852;25.952;2022-09-03T12:20:36;101452.31;;;20.24;63.83
71559;BME280;59382;43.852;25.952;2022-09-03T12:23:02;101460.38;;;20.36;63.73
71559;BME280;59382;43.852;25.952;2022-09-03T12:25:27;101459.06;;;20.38;63.84
71559;BME280;59382;43.852;25.952;2022-09-03T12:27:53;101456.31;;;20.38;63.85
71559;BME280;59382;43.852;25.952;2022-09-03T12:30:22;101464.13;;;20.51;63.75
71559;BME280;59382;43.852;25.952;2022-09-03T12:32:49;101472.38;;;20.56;63.89
71559;BME280;59382;43.852;25.952;2022-09-03T12:35:20;101460.88;;;20.54;63.87
71559;BME280;59382;43.852;25.952;2022-09-03T12:37:46;101445.38;;;20.43;63.74
71559;BME280;59382;43.852;25.952;2022-09-03T12:40:24;101468.56;;;20.57;63.62
71559;BME280;59382;43.852;25.952;2022-09-03T12:42:51;101472.38;;;20.56;64.00
71559;BME280;59382;43.852;25.952;2022-09-03T12:45:19;101458.91;;;20.50;64.21
71559;BME280;59382;43.852;25.952;2022-09-03T12:47:45;101465.88;;;20.62;64.09
71559;BME280;59382;43.852;25.952;2022-09-03T12:50:14;101448.25;;;20.53;63.66
71559;BME280;59382;43.852;25.952;2022-09-03T12:52:52;101456.47;;;20.53;63.61
71559;BME280;59382;43.852;25.952;2022-09-03T12:55:32;101480.72;;;20.66;63.97
71559;BME280;59382;43.852;25.952;2022-09-03T12:58:22;101470.31;;;20.68;63.87
71559;BME280;59382;43.852;25.952;2022-09-03T13:03:45;101472.00;;;20.69;63.69
71559;BME280;59382;43.852;25.952;2022-09-03T13:06:14;101472.00;;;20.69;63.86
71559;BME280;59382;43.852;25.952;2022-09-03T13:08:49;101462.84;;;20.64;63.63
71559;BME280;59382;43.852;25.952;2022-09-03T13:11:20;101470.31;;;20.68;63.54
71559;BME280;59382;43.852;25.952;2022-09-03T13:14:10;101443.84;;;20.52;63.51
71559;BME280;59382;43.852;25.952;2022-09-03T13:16:59;101459.25;;;20.58;63.67
71559;BME280;59382;43.852;25.952;2022-09-03T13:30:12;101483.75;;;20.43;63.93
71559;BME280;59382;43.852;25.952;2022-09-03T13:36:00;101465.75;;;20.26;64.20
71559;BME280;59382;43.852;25.952;2022-09-03T13:38:48;101468.25;;;20.27;64.26
71559;BME280;59382;43.852;25.952;2022-09-03T13:41:37;101485.31;;;20.34;64.44
71559;BME280;59382;43.852;25.952;2022-09-03T13:44:21;101464.41;;;20.28;64.19
71559;BME280;59382;43.852;25.952;2022-09-03T13:46:59;101475.00;;;20.41;63.92
71559;BME280;59382;43.852;25.952;2022-09-03T13:53:03;101481.50;;;20.35;63.44
71559;BME280;59382;43.852;25.952;2022-09-03T13:55:41;101484.19;;;20.30;63.47
71559;BME280;59382;43.852;25.952;2022-09-03T13:58:27;101486.22;;;20.18;63.88
71559;BME280;59382;43.852;25.952;2022-09-03T14:11:51;101471.16;;;19.99;64.40
71559;BME280;59382;43.852;25.952;2022-09-03T14:22:24;101471.50;;;20.03;64.96
71559;BME280;59382;43.852;25.952;2022-09-03T14:24:55;101483.41;;;20.13;64.53
71559;BME280;59382;43.852;25.952;2022-09-03T14:27:27;101483.41;;;20.13;64.63
71559;BME280;59382;43.852;25.952;2022-09-03T14:30:04;101479.59;;;20.14;64.07
71559;BME280;59382;43.852;25.952;2022-09-03T14:32:45;101489.09;;;20.12;64.10
71559;BME280;59382;43.852;25.952;2022-09-03T14:35:30;101493.72;;;20.06;64.24
71559;BME280;59382;43.852;25.952;2022-09-03T14:41:37;101502.69;;;20.02;64.33
71559;BME280;59382;43.852;25.952;2022-09-03T14:44:17;101497.47;;;20.00;64.58
71559;BME280;59382;43.852;25.952;2022-09-03T14:56:24;101495.81;;;19.99;64.68
71559;BME280;59382;43.852;25.952;2022-09-03T15:01:28;101491.94;;;19.95;64.73
71559;BME280;59382;43.852;25.952;2022-09-03T15:04:28;101508.13;;;19.97;64.82
71559;BME280;59382;43.852;25.952;2022-09-03T15:09:44;101503.19;;;19.77;64.88
71559;BME280;59382;43.852;25.952;2022-09-03T15:12:22;101516.03;;;19.77;65.22
71559;BME280;59382;43.852;25.952;2022-09-03T15:14:55;101532.81;;;19.80;65.42
71559;BME280;59382;43.852;25.952;2022-09-03T15:17:45;101529.25;;;19.80;65.42
71559;BME280;59382;43.852;25.952;2022-09-03T15:36:44;101523.34;;;19.88;65.29
71559;BME280;59382;43.852;25.952;2022-09-03T15:39:30;101485.19;;;19.65;65.27
71559;BME280;59382;43.852;25.952;2022-09-03T15:42:13;101530.72;;;19.87;65.28
71559;BME280;59382;43.852;25.952;2022-09-03T15:44:48;101535.81;;;19.79;65.39
71559;BME280;59382;43.852;25.952;2022-09-03T15:50:47;101546.44;;;19.75;65.34
71559;BME280;59382;43.852;25.952;2022-09-03T15:53:30;101540.56;;;19.67;65.63
71559;BME280;59382;43.852;25.952;2022-09-03T15:56:18;101554.06;;;19.73;65.71
71559;BME280;59382;43.852;25.952;2022-09-03T15:58:58;101535.19;;;19.55;65.78
71559;BME280;59382;43.852;25.952;2022-09-03T16:12:15;101545.13;;;19.28;66.74
71559;BME280;59382;43.852;25.952;2022-09-03T16:20:32;101566.41;;;19.26;66.74
71559;BME280;59382;43.852;25.952;2022-09-03T16:38:52;101552.22;;;19.12;67.54
71559;BME280;59382;43.852;25.952;2022-09-03T16:41:40;101560.66;;;19.11;67.87
71559;BME280;59382;43.852;25.952;2022-09-03T16:44:23;101573.28;;;19.12;67.76
71559;BME280;59382;43.852;25.952;2022-09-03T16:47:06;101577.91;;;19.11;68.10
71559;BME280;59382;43.852;25.952;2022-09-03T16:50:23;101528.47;;;18.85;68.00
71559;BME280;59382;43.852;25.952;2022-09-03T16:58:18;101589.72;;;19.12;67.69
71559;BME280;59382;43.852;25.952;2022-09-03T17:09:29;101578.56;;;19.02;67.47
71559;BME280;59382;43.852;25.952;2022-09-03T17:12:47;101587.47;;;19.09;67.60
71559;BME280;59382;43.852;25.952;2022-09-03T17:21:11;101596.22;;;19.11;67.45
71559;BME280;59382;43.852;25.952;2022-09-03T17:24:27;101594.47;;;19.05;67.47
71559;BME280;59382;43.852;25.952;2022-09-03T17:45:19;101590.59;;;19.01;67.44
71559;BME280;59382;43.852;25.952;2022-09-03T17:53:21;101621.34;;;19.08;67.49
71559;BME280;59382;43.852;25.952;2022-09-03T17:56:03;101628.50;;;19.09;67.71